createdAt,value
2023-03-27T00:00:32.821Z,100.00
2023-03-27T00:05:36.564Z,100.00
2023-03-27T00:10:40.017Z,100.00
2023-03-27T00:15:44.604Z,100.00
2023-03-27T00:20:47.726Z,100.00
2023-03-27T00:25:51.572Z,100.00
2023-03-27T00:30:57.685Z,100.00
2023-03-27T00:36:01.083Z,100.00
2023-03-27T00:41:04.936Z,100.00
2023-03-27T00:46:27.850Z,100.00
2023-03-27T00:51:32.795Z,100.00
2023-03-27T00:56:38.674Z,100.00
2023-03-27T01:01:45.749Z,100.00
2023-03-27T01:06:52.143Z,100.00
2023-03-27T01:12:10.548Z,100.00
2023-03-27T01:17:31.463Z,100.00
2023-03-27T01:23:02.648Z,100.00
2023-03-27T01:28:29.198Z,100.00
2023-03-27T01:34:15.061Z,100.00
2023-03-27T01:39:36.900Z,100.00
2023-03-27T01:44:48.482Z,100.00
2023-03-27T01:49:58.096Z,100.00
2023-03-27T01:55:09.825Z,100.00
2023-03-27T02:00:21.868Z,100.00
2023-03-27T02:05:30.582Z,100.00
2023-03-27T02:10:42.025Z,100.00
2023-03-27T02:15:51.674Z,100.00
2023-03-27T02:20:55.251Z,100.00
2023-03-27T02:26:01.784Z,100.00
2023-03-27T02:31:32.218Z,100.00
2023-03-27T02:36:49.551Z,100.00
2023-03-27T02:42:02.775Z,100.00
2023-03-27T02:47:16.777Z,100.00
2023-03-27T02:52:27.793Z,100.00
2023-03-27T02:57:34.174Z,100.00
2023-03-27T03:03:07.317Z,100.00
2023-03-27T03:08:11.223Z,100.00
2023-03-27T03:13:16.217Z,100.00
2023-03-27T03:18:20.210Z,100.00
2023-03-27T03:23:24.849Z,100.00
2023-03-27T03:28:29.632Z,100.00
2023-03-27T03:33:34.455Z,100.00
2023-03-27T03:38:38.416Z,100.00
2023-03-27T03:43:51.350Z,100.00
2023-03-27T03:48:54.982Z,100.00
2023-03-27T03:53:58.245Z,100.00
2023-03-27T03:59:04.579Z,100.00
2023-03-27T04:04:09.519Z,100.00
2023-03-27T04:09:31.241Z,100.00
2023-03-27T04:14:44.482Z,100.00
2023-03-27T04:20:08.361Z,100.00
2023-03-27T04:25:14.855Z,100.00
2023-03-27T04:30:23.417Z,100.00
2023-03-27T04:36:05.291Z,100.00
2023-03-27T04:41:29.560Z,100.00
2023-03-27T04:46:34.260Z,100.00
2023-03-27T04:51:43.651Z,100.00
2023-03-27T04:56:48.254Z,100.00
2023-03-27T05:01:54.587Z,100.00
2023-03-27T05:07:05.082Z,100.00
2023-03-27T05:12:08.876Z,100.00
2023-03-27T05:17:20.241Z,100.00
2023-03-27T05:22:23.842Z,100.00
2023-03-27T05:27:36.503Z,100.00
2023-03-27T05:32:41.684Z,100.00
2023-03-27T05:37:54.661Z,100.00
2023-03-27T05:43:18.085Z,100.00
2023-03-27T05:48:22.986Z,100.00
2023-03-27T05:53:29.103Z,100.00
2023-03-27T05:58:58.192Z,100.00
2023-03-27T06:04:04.679Z,100.00
2023-03-27T06:09:37.426Z,100.00
2023-03-27T06:15:00.719Z,100.00
2023-03-27T06:20:15.081Z,100.00
2023-03-27T06:25:26.083Z,100.00
2023-03-27T06:30:30.376Z,100.00
2023-03-27T06:35:55.144Z,100.00
2023-03-27T06:41:06.373Z,97.26
2023-03-27T06:46:45.848Z,95.44
2023-03-27T06:52:03.895Z,84.46
2023-03-27T06:57:07.333Z,84.08
2023-03-27T07:02:24.937Z,81.58
2023-03-27T07:07:50.281Z,78.64
2023-03-27T07:12:55.527Z,76.87
2023-03-27T07:18:01.301Z,73.29
2023-03-27T07:23:06.192Z,68.30
2023-03-27T07:28:25.498Z,69.42
2023-03-27T07:33:29.228Z,71.98
2023-03-27T07:38:35.331Z,73.41
2023-03-27T07:43:46.754Z,77.02
2023-03-27T07:48:50.726Z,81.86
2023-03-27T07:54:04.131Z,77.17
2023-03-27T07:59:12.498Z,75.92
2023-03-27T08:04:17.148Z,77.46
2023-03-27T08:09:35.257Z,74.36
2023-03-27T08:14:38.762Z,76.53
2023-03-27T08:19:52.350Z,73.98
2023-03-27T08:24:57.582Z,73.26
2023-03-27T08:30:02.998Z,74.00
2023-03-27T08:35:09.863Z,72.44
2023-03-27T08:40:21.423Z,72.69
2023-03-27T08:45:29.195Z,66.21
2023-03-27T08:50:42.318Z,73.87
2023-03-27T08:55:53.041Z,68.81
2023-03-27T09:01:14.827Z,69.84
2023-03-27T09:06:26.165Z,72.81
2023-03-27T09:11:53.146Z,67.21
2023-03-27T09:17:15.177Z,69.23
2023-03-27T09:22:25.801Z,72.97
2023-03-27T09:27:47.293Z,68.07
2023-03-27T09:33:13.752Z,69.85
2023-03-27T09:38:27.848Z,69.88
2023-03-27T09:43:40.596Z,68.34
2023-03-27T09:48:50.543Z,68.76
2023-03-27T09:53:59.602Z,68.90
2023-03-27T09:59:25.285Z,64.33
2023-03-27T10:04:30.332Z,64.56
2023-03-27T10:09:37.514Z,59.94
2023-03-27T10:14:47.817Z,60.94
2023-03-27T10:20:09.066Z,63.00
2023-03-27T10:25:19.264Z,61.94
2023-03-27T10:31:01.361Z,58.10
2023-03-27T10:36:28.353Z,59.58
2023-03-27T10:41:36.106Z,57.44
2023-03-27T10:46:44.235Z,59.97
2023-03-27T10:51:52.685Z,61.55
2023-03-27T10:57:16.911Z,61.26
2023-03-27T11:02:30.387Z,66.14
2023-03-27T11:07:39.016Z,65.15
2023-03-27T11:12:52.068Z,61.62
2023-03-27T11:18:01.935Z,64.00
2023-03-27T11:23:20.028Z,61.42
2023-03-27T11:28:47.757Z,57.85
2023-03-27T11:33:57.152Z,59.30
2023-03-27T11:39:15.381Z,60.74
2023-03-27T11:44:23.219Z,59.59
2023-03-27T11:50:20.190Z,57.11
2023-03-27T11:55:35.005Z,55.20
2023-03-27T12:00:49.031Z,55.88
2023-03-27T12:06:05.957Z,56.13
2023-03-27T12:11:14.091Z,57.26
2023-03-27T12:17:02.972Z,52.51
2023-03-27T12:22:29.830Z,51.44
2023-03-27T12:27:56.133Z,52.98
2023-03-27T12:33:28.654Z,52.52
2023-03-27T12:38:35.434Z,53.50
2023-03-27T12:43:45.295Z,49.91
2023-03-27T12:49:02.315Z,49.80
2023-03-27T12:54:25.912Z,51.14
2023-03-27T12:59:34.334Z,49.96
2023-03-27T13:05:24.082Z,63.26
2023-03-27T13:10:46.434Z,88.04
2023-03-27T13:16:19.182Z,100.00
2023-03-27T13:21:38.923Z,100.00
2023-03-27T13:26:53.448Z,100.00
2023-03-27T13:32:07.328Z,100.00
2023-03-27T13:37:49.114Z,100.00
2023-03-27T13:43:01.683Z,100.00
2023-03-27T13:49:06.049Z,99.00
2023-03-27T13:55:11.797Z,91.96
2023-03-27T14:00:58.731Z,76.46
2023-03-27T14:06:38.888Z,71.17
2023-03-27T14:12:03.755Z,64.05
2023-03-27T14:17:47.477Z,64.26
2023-03-27T14:22:59.076Z,63.00
2023-03-27T14:28:10.422Z,62.83
2023-03-27T14:33:20.323Z,62.81
2023-03-27T14:38:32.019Z,61.84
2023-03-27T14:43:37.714Z,64.26
2023-03-27T14:48:45.073Z,65.90
2023-03-27T14:53:52.476Z,60.71
2023-03-27T14:59:22.053Z,80.13
2023-03-27T15:04:32.024Z,93.14
2023-03-27T15:09:42.897Z,98.89
2023-03-27T15:15:06.549Z,100.00
2023-03-27T15:20:14.540Z,100.00
2023-03-27T15:25:23.166Z,100.00
2023-03-27T15:30:33.384Z,100.00
2023-03-27T15:35:40.443Z,100.00
2023-03-27T15:40:46.339Z,100.00
2023-03-27T15:46:11.413Z,100.00
2023-03-27T15:51:30.559Z,100.00
2023-03-27T15:56:41.250Z,100.00
2023-03-27T16:01:52.334Z,100.00
2023-03-27T16:07:06.486Z,100.00
2023-03-27T16:12:13.147Z,100.00
2023-03-27T16:17:25.290Z,100.00
2023-03-27T16:22:30.860Z,100.00
2023-03-27T16:27:37.072Z,100.00
2023-03-27T16:32:41.904Z,100.00
2023-03-27T16:43:05.804Z,100.00
2023-03-27T16:48:13.502Z,100.00
2023-03-27T16:53:17.184Z,100.00
2023-03-27T16:58:20.553Z,100.00
2023-03-27T17:03:25.217Z,100.00
2023-03-27T17:08:30.344Z,100.00
2023-03-27T17:13:33.800Z,100.00
2023-03-27T17:18:38.389Z,100.00
2023-03-27T17:23:43.532Z,100.00
2023-03-27T17:28:48.372Z,100.00
2023-03-27T17:33:53.555Z,100.00
2023-03-27T17:38:56.996Z,100.00
2023-03-27T17:44:00.672Z,100.00
2023-03-27T17:49:05.491Z,100.00
2023-03-27T17:54:08.991Z,100.00
2023-03-27T17:59:12.619Z,100.00
2023-03-27T18:04:17.618Z,100.00
2023-03-27T18:09:21.861Z,100.00
2023-03-27T18:14:25.499Z,100.00
2023-03-27T18:19:30.895Z,100.00
2023-03-27T18:24:35.002Z,100.00
2023-03-27T18:29:39.097Z,100.00
2023-03-27T18:34:44.636Z,100.00
2023-03-27T18:39:48.064Z,100.00
2023-03-27T18:44:51.710Z,100.00
2023-03-27T18:49:57.819Z,100.00
2023-03-27T18:55:01.248Z,100.00
2023-03-27T19:00:07.409Z,100.00
2023-03-27T19:05:12.999Z,100.00
2023-03-27T19:10:17.393Z,100.00
2023-03-27T19:15:42.165Z,100.00
2023-03-27T19:21:06.220Z,100.00
2023-03-27T19:26:45.501Z,100.00
2023-03-27T19:31:48.689Z,100.00
2023-03-27T19:36:54.081Z,100.00
2023-03-27T19:41:58.075Z,100.00
2023-03-27T19:47:03.695Z,100.00
2023-03-27T19:52:09.301Z,100.00
2023-03-27T19:57:12.623Z,100.00
2023-03-27T20:02:17.141Z,100.00
2023-03-27T20:07:22.012Z,100.00
2023-03-27T20:12:25.671Z,100.00
2023-03-27T20:17:29.151Z,100.00
2023-03-27T20:22:36.601Z,100.00
2023-03-27T20:27:45.578Z,100.00
2023-03-27T20:32:48.824Z,100.00
2023-03-27T20:37:58.142Z,100.00
2023-03-27T20:43:06.060Z,100.00
2023-03-27T20:48:14.925Z,100.00
2023-03-27T20:53:25.908Z,100.00
2023-03-27T20:58:30.082Z,100.00
2023-03-27T21:03:35.104Z,100.00
2023-03-27T21:08:41.294Z,100.00
2023-03-27T21:13:44.593Z,100.00
2023-03-27T21:18:47.740Z,100.00
2023-03-27T21:23:54.189Z,100.00
2023-03-27T21:28:57.267Z,100.00
2023-03-27T21:34:00.413Z,100.00
2023-03-27T21:39:05.593Z,100.00
2023-03-27T21:44:08.773Z,100.00
2023-03-27T21:49:12.024Z,100.00
2023-03-27T21:54:16.595Z,100.00
2023-03-27T21:59:19.892Z,100.00
2023-03-27T22:04:23.220Z,100.00
2023-03-27T22:09:28.109Z,100.00
2023-03-27T22:14:31.571Z,100.00
2023-03-27T22:19:34.812Z,100.00
2023-03-27T22:24:39.559Z,100.00
2023-03-27T22:29:42.782Z,100.00
2023-03-27T22:34:49.135Z,100.00
2023-03-27T22:39:53.857Z,100.00
2023-03-27T22:44:57.089Z,100.00
2023-03-27T22:50:09.381Z,100.00
2023-03-27T22:55:12.646Z,100.00
2023-03-27T23:00:17.226Z,100.00
2023-03-27T23:05:22.175Z,100.00
2023-03-27T23:10:25.728Z,100.00
2023-03-27T23:15:29.985Z,100.00
2023-03-27T23:20:35.126Z,100.00
2023-03-27T23:25:39.541Z,100.00
2023-03-27T23:30:45.600Z,100.00
2023-03-27T23:35:50.248Z,100.00
2023-03-27T23:40:57.729Z,100.00
2023-03-27T23:46:01.233Z,100.00
2023-03-27T23:51:06.879Z,100.00
2023-03-27T23:56:11.218Z,100.00
